Clearfield, Iowa
Current Conditions -  °F | °C
As of 9:55 PM on Thursday 27 Nov 2014 (Local Time) from KCSQ Reporting Station
Overcast Overcast  
Wind Chill:   Ceiling: 12000
Heat Index: 19°   Visibility: 10mi
Dew Point: 14°   Wind: 13mph
Humidity: 80%   Direction: 140°SE
Pressure: 30.25"   Gusts: NA
Location:  40.8°N, 94.48°W
Report Text: KCSQ 280355Z AUTO 14011KT 10SM OVC120 M07/M10 A3025 RMK AO2
Loading
Personal Weather Stations






























Interactive Weather Map New forecast layout! Learn more

10-Day Weather Forecast

Advertisements
Track Severe Weather on mobile